LEAM

Almería International Airport

Almería, Spain
TAF LEAM 221400Z 2215/2315 18004KT CAVOK TX35/2314Z TN20/2303Z
Issued Valid From Valid To
Sep-22 @ 14:00 UTC
(59 minutes ago)
Sep-22 @ 15:00 UTC
(in a few seconds)
Sep-23 @ 15:00 UTC
(in 24 hours)
to
TAF LEAM 221400Z 2215/2315 18004KT CAVOK TX35/2314Z TN20/2303Z
Issued Sep-22 @ 14:00 UTC
(59 minutes ago)
Valid From Sep-22 @ 15:00 UTC
(in a few seconds)
Valid To Sep-23 @ 15:00 UTC
(in 24 hours)
-